Latest Weather Observations for Launceston Airport

IDT60801

Issued at 1:35 pm EST Wednesday 1 October 2014 (issued every 30 minutes, with the page automatically refreshed every 10 minutes)

About weather observations | Map of weather stations | Latest weather observations for TAS | Other Formats
Station Details ID: 091311 Name: LAUNCESTON AIRPORT Lat: -41.55 Lon: 147.21 Height: 166.9 m
Data from the previous 72 hours. | See also: Recent months at Launceston Airport
Date/Time
EST
Temp
°C
App
Temp
°C
Dew
Point
Rel
Hum
%
Delta-T
°C
Wind Press
QNH
hPa
Press
MSL
hPa
Rain
since 9 am
mm
Dir
 
Spd
km/h
Gust
km/h
Spd
kts
Gust
kts
01/01:30pm 13.9 7.3 2.2 45 5.2 W 26 32 14 17 1015.6 1015.7 0.0
01/01:00pm 13.0 7.1 2.0 47 4.8 WNW 22 33 12 18 1015.8 1015.9 0.0
01/12:30pm 12.9 7.3 1.0 44 5.1 W 20 35 11 19 1016.1 1016.2 0.0
01/12:00pm 13.9 8.1 2.2 45 5.2 W 22 32 12 17 1015.9 1016.0 0.0
01/11:30am 12.7 7.1 1.4 46 4.9 W 20 30 11 16 1015.4 1015.5 0.0
01/11:00am 12.4 7.5 2.0 49 4.5 WNW 17 26 9 14 1015.5 1015.6 0.0
01/10:30am 11.4 6.9 2.2 53 4.0 NW 15 20 8 11 1015.8 1015.9 0.0
01/10:00am 10.9 5.2 -0.5 45 4.6 NW 19 22 10 12 1015.6 1015.7 0.0
01/09:30am 11.2 5.9 1.7 52 4.1 S 19 24 10 13 1015.3 1015.5 0.0
01/09:00am 9.2 5.2 0.4 54 3.6 NNW 11 20 6 11 1015.2 1015.4 7.0
01/08:30am 7.8 4.2 3.1 72 2.0 N 11 15 6 8 1015.1 1015.3 7.0
01/08:00am 6.6 3.4 3.0 78 1.5 N 9 11 5 6 1014.8 1015.0 7.0
01/07:30am 4.9 1.1 1.6 79 1.3 NW 11 13 6 7 1014.2 1014.4 7.0
01/07:00am 3.0 0.3 0.1 81 1.1 NW 4 7 2 4 1013.8 1014.0 7.0
01/06:30am 2.7 -0.5 -0.7 78 1.2 NNE 6 13 3 7 1013.1 1013.3 7.0
01/06:00am 2.6 -1.9 0.0 83 1.0 W 13 20 7 11 1012.2 1012.4 7.0
01/05:30am 2.6 0.3 0.5 86 0.8 WSW 2 7 1 4 1011.6 1011.9 7.0
01/05:00am 2.1 -1.6 0.0 86 0.8 N 9 15 5 8 1010.9 1011.1 7.0
01/04:30am 1.9 -2.2 -0.5 84 0.9 N 11 13 6 7 1010.4 1010.6 7.0
01/04:00am 2.8 -0.8 0.4 84 0.9 NW 9 13 5 7 1009.4 1009.6 7.0
01/03:30am 3.3 -0.3 0.7 83 1.0 NNE 9 15 5 8 1009.0 1009.2 7.0
01/03:00am 1.9 -2.2 -0.5 84 0.9 NNE 11 15 6 8 1008.4 1008.6 7.0
01/02:30am 2.4 -1.3 0.0 84 0.9 N 9 19 5 10 1008.0 1008.2 7.0
01/02:00am 2.9 -0.5 -0.4 79 1.2 NW 7 9 4 5 1007.3 1007.5 7.0
01/01:30am 3.4 0.2 0.8 83 1.0 E 7 11 4 6 1007.2 1007.4 7.0
01/01:00am 4.5 -0.2 1.0 78 1.4 NW 15 19 8 10 1006.7 1006.9 7.0
01/12:30am 4.3 0.0 1.0 79 1.3 WNW 13 15 7 8 1006.4 1006.5 7.0
01/12:00am 2.9 -1.9 0.5 84 0.9 NNW 15 24 8 13 1005.7 1005.8 7.0
 
Date/Time
EST
Temp
°C
App
Temp
°C
Dew
Point
Rel
Hum
%
Delta-T
°C
Wind Press
QNH
hPa
Press
MSL
hPa
Rain
since 9 am
mm
Dir
 
Spd
km/h
Gust
km/h
Spd
kts
Gust
kts
30/11:30pm 3.1 -1.4 -0.2 79 1.2 NW 13 17 7 9 1005.2 1005.4 7.0
30/11:00pm 4.8 -0.6 1.3 78 1.4 NW 19 22 10 12 1004.8 1005.0 7.0
30/10:30pm 3.2 -2.0 0.3 81 1.1 NW 17 20 9 11 1004.1 1004.3 7.0
30/10:00pm 4.2 -0.3 0.0 74 1.6 NNW 13 15 7 8 1003.8 1004.0 7.0
30/09:30pm 3.4 -0.6 0.5 81 1.1 N 11 13 6 7 1003.6 1003.8 7.0
30/09:00pm 6.8 2.7 -0.2 61 2.7 WSW 11 15 6 8 1002.8 1003.0 7.0
30/08:30pm 6.9 0.7 -0.1 61 2.7 SW 22 30 12 16 1002.3 1002.5 7.0
30/08:00pm 7.3 3.4 3.2 75 1.8 W 13 19 7 10 1001.6 1001.7 7.0
30/07:30pm 8.5 4.0 4.1 74 1.9 WNW 17 24 9 13 1000.5 1000.6 7.0
30/07:00pm 8.8 4.4 4.6 75 1.9 W 17 22 9 12 999.0 999.2 7.0
30/06:30pm 8.7 4.1 5.8 82 1.3 NW 19 22 10 12 997.9 998.1 7.0
30/06:00pm 9.4 3.2 6.3 81 1.5 NW 28 35 15 19 997.6 997.8 7.0
30/05:30pm 10.0 4.4 8.9 93 0.5 NNW 28 35 15 19 997.1 997.3 7.0
30/05:00pm 10.1 3.7 9.2 94 0.5 N 33 41 18 22 996.3 996.4 6.8
30/04:40pm 10.3 4.1 9.5 95 0.4 N 32 43 17 23 995.6 995.7 6.6
30/04:30pm 10.3 4.5 9.4 94 0.5 N 30 41 16 22 995.6 995.7 6.4
30/04:00pm 10.5 5.5 9.7 95 0.4 N 26 33 14 18 995.7 995.8 6.2
30/03:34pm 10.3 3.9 9.2 93 0.6 N 33 43 18 23 995.9 996.0 5.8
30/03:30pm 10.4 4.2 9.3 93 0.6 N 32 43 17 23 995.9 996.0 5.6
30/03:00pm 10.7 4.4 9.0 89 0.9 NNW 32 41 17 22 995.5 995.6 5.4
30/02:30pm 11.0 3.3 8.6 85 1.2 NW 39 54 21 29 995.7 995.8 5.0
30/02:29pm 11.1 3.4 8.5 84 1.3 NW 39 54 21 29 995.6 995.7 5.0
30/02:24pm 11.4 4.1 8.8 84 1.3 NW 37 54 20 29 995.5 995.6 4.8
30/02:13pm 11.6 3.9 10.3 92 0.7 NNW 41 61 22 33 995.8 995.9 4.4
30/02:00pm 11.9 3.7 10.3 90 0.8 NNW 44 65 24 35 995.5 995.6 3.2
30/01:44pm 12.0 3.4 10.2 89 0.9 NNW 46 69 25 37 995.7 995.8 3.0
30/01:36pm 12.1 3.8 10.2 88 1.0 NNW 44 61 24 33 995.8 995.9 1.8
30/01:30pm 12.4 4.2 10.3 87 1.1 NNW 44 61 24 33 996.0 996.1 1.4
30/01:04pm 12.4 4.7 10.3 87 1.1 NNW 41 59 22 32 996.7 996.9 1.0
30/01:02pm 12.4 4.7 10.3 87 1.1 NNW 41 59 22 32 996.8 997.0 1.0
30/01:00pm 12.5 4.5 10.4 87 1.1 NNW 43 59 23 32 996.8 997.0 1.0
30/12:58pm 12.4 4.8 10.6 89 0.9 NNW 41 57 22 31 996.8 997.0 1.0
30/12:51pm 12.4 4.4 10.5 88 1.0 NNW 43 57 23 31 996.9 997.1 1.0
30/12:50pm 12.3 4.7 10.4 88 1.0 NNW 41 57 22 31 997.0 997.2 1.0
30/12:41pm 12.5 4.0 10.7 89 0.9 NNW 46 61 25 33 997.2 997.4 1.0
30/12:34pm 12.3 3.8 10.7 90 0.8 NNW 46 65 25 35 997.4 997.6 1.0
30/12:30pm 12.3 3.4 10.7 90 0.8 NNW 48 65 26 35 997.4 997.6 1.0
30/12:16pm 12.6 3.7 10.7 88 1.0 NNW 48 69 26 37 997.6 997.8 0.8
30/12:13pm 12.6 3.3 10.7 88 1.0 NNW 50 69 27 37 997.7 997.9 0.8
30/12:07pm 12.5 3.2 10.6 88 1.0 NNW 50 69 27 37 997.7 997.9 0.8
30/12:00pm 12.5 3.5 10.4 87 1.1 NNW 48 63 26 34 997.8 998.0 0.8
30/11:39am 12.4 3.0 10.1 86 1.2 NNW 50 67 27 36 998.1 998.3 0.8
30/11:38am 12.4 3.0 10.1 86 1.2 NNW 50 67 27 36 998.2 998.4 0.8
30/11:30am 12.5 3.8 10.0 85 1.3 NNW 46 65 25 35 998.1 998.3 0.8
30/11:20am 12.2 3.2 10.1 87 1.1 NNW 48 61 26 33 998.5 998.7 0.6
30/11:17am 12.3 3.2 9.9 85 1.2 NNW 48 63 26 34 998.5 998.7 0.6
30/11:00am 12.7 4.4 10.1 84 1.4 NNW 44 57 24 31 998.8 999.0 0.4
30/10:30am 12.0 3.9 10.2 89 0.9 NNW 43 57 23 31 999.6 999.7 0.4
30/10:21am 11.5 3.4 9.9 90 0.8 NNW 43 59 23 32 999.9 1000.0 0.4
30/10:00am 11.4 2.7 10.0 91 0.7 NNW 46 59 25 32 1000.4 1000.5 0.2
30/09:31am 11.7 3.4 9.4 86 1.2 NNW 43 61 23 33 1001.0 1001.1 0.0
30/09:30am 11.7 3.2 9.1 84 1.3 NNW 44 61 24 33 1001.0 1001.1 0.0
30/09:27am 12.0 3.7 9.4 84 1.3 NNW 43 57 23 31 1001.0 1001.1 0.0
30/09:00am 12.9 2.3 8.6 75 2.2 NNW 54 67 29 36 1001.2 1001.3 0.6
30/08:37am 13.6 4.0 9.6 77 2.1 NNW 50 69 27 37 1001.5 1001.6 0.6
30/08:30am 12.9 2.9 9.2 78 1.9 NNW 52 69 28 37 1001.8 1002.0 0.6
30/08:14am 13.0 2.2 9.3 78 1.9 NNW 56 74 30 40 1001.8 1002.0 0.6
30/08:00am 12.0 3.6 9.6 85 1.2 NNW 44 61 24 33 1002.0 1002.2 0.6
30/07:31am 11.4 3.9 9.3 87 1.1 NNW 39 61 21 33 1002.6 1002.8 0.4
30/07:30am 11.4 3.9 9.5 88 1.0 NNW 39 50 21 27 1002.6 1002.8 0.4
30/07:29am 11.3 4.2 9.6 89 0.9 NNW 37 48 20 26 1002.6 1002.8 0.4
30/07:19am 10.9 4.5 9.5 91 0.7 NNW 33 44 18 24 1002.8 1003.0 0.4
30/07:18am 10.9 4.5 9.5 91 0.7 NNW 33 52 18 28 1002.8 1003.0 0.4
30/07:07am 11.0 3.0 9.1 88 1.0 NNW 41 52 22 28 1003.0 1003.2 0.2
30/07:00am 11.0 3.4 8.9 87 1.1 NNW 39 52 21 28 1003.1 1003.3 0.0
30/06:30am 11.8 4.6 7.7 76 2.0 NNW 35 50 19 27 1003.4 1003.6 0.0
30/06:00am 11.7 4.6 8.0 78 1.8 NNW 35 48 19 26 1003.3 1003.5 0.0
30/05:30am 11.7 3.8 8.0 78 1.8 N 39 46 21 25 1003.5 1003.7 0.0
30/05:02am 11.5 5.0 8.2 80 1.6 N 32 44 17 24 1003.7 1003.9 0.0
30/05:00am 11.6 4.9 8.3 80 1.6 NNW 33 44 18 24 1003.8 1004.0 0.0
30/04:38am 11.5 5.1 8.4 81 1.5 NNW 32 48 17 26 1004.1 1004.3 0.0
30/04:30am 11.6 5.6 8.6 82 1.5 NNW 30 43 16 23 1004.2 1004.4 0.0
30/04:24am 11.6 5.2 8.6 82 1.5 NNW 32 43 17 23 1004.3 1004.5 0.0
30/04:00am 11.4 5.4 8.6 83 1.4 NNW 30 41 16 22 1004.5 1004.7 0.0
30/03:30am 11.3 4.3 8.5 83 1.4 N 35 46 19 25 1005.0 1005.2 0.0
30/03:23am 11.6 5.1 8.8 83 1.4 N 33 46 18 25 1005.1 1005.3 0.0
30/03:00am 11.5 4.7 9.1 85 1.2 N 35 46 19 25 1005.5 1005.7 0.0
30/02:49am 11.5 5.3 9.2 86 1.2 N 32 41 17 22 1005.7 1005.8 0.0
30/02:30am 11.7 5.5 9.3 85 1.2 N 32 46 17 25 1006.2 1006.3 0.0
30/02:00am 11.8 5.4 9.4 85 1.2 N 33 43 18 23 1006.6 1006.8 0.0
30/01:30am 11.6 5.4 9.2 85 1.2 NNW 32 44 17 24 1007.0 1007.2 0.0
30/01:00am 11.7 5.4 8.9 83 1.4 N 32 43 17 23 1007.3 1007.5 0.0
30/12:42am 11.6 5.2 8.6 82 1.5 N 32 44 17 24 1007.5 1007.7 0.0
30/12:41am 11.6 5.3 8.8 83 1.4 N 32 44 17 24 1007.5 1007.7 0.0
30/12:30am 11.5 5.1 8.7 83 1.4 N 32 39 17 21 1007.6 1007.8 0.0
30/12:29am 11.5 5.1 8.7 83 1.4 N 32 39 17 21 1007.6 1007.8 0.0
30/12:00am 11.0 5.2 8.0 82 1.5 N 28 41 15 22 1007.7 1007.9 0.0
 
Date/Time
EST
Temp
°C
App
Temp
°C
Dew
Point
Rel
Hum
%
Delta-T
°C
Wind Press
QNH
hPa
Press
MSL
hPa
Rain
since 9 am
mm
Dir
 
Spd
km/h
Gust
km/h
Spd
kts
Gust
kts
29/11:30pm 11.1 4.4 7.4 78 1.8 N 32 43 17 23 1007.9 1008.1 0.0
29/11:00pm 10.8 5.1 6.9 77 1.9 N 26 35 14 19 1007.8 1008.0 0.0
29/10:30pm 10.6 4.5 6.6 76 1.9 N 28 35 15 19 1007.8 1008.0 0.0
29/10:00pm 10.4 5.1 6.7 78 1.8 N 24 32 13 17 1007.9 1008.1 0.0
29/09:30pm 10.7 5.7 6.6 76 1.9 N 22 30 12 16 1008.2 1008.4 0.0
29/09:00pm 11.3 5.4 6.0 70 2.5 N 26 32 14 17 1008.2 1008.4 0.0
29/08:30pm 11.9 6.3 5.5 65 3.0 NNW 24 35 13 19 1008.4 1008.6 0.0
29/08:00pm 10.6 4.8 6.2 74 2.1 NNW 26 35 14 19 1008.4 1008.6 0.0
29/07:30pm 11.0 5.6 6.4 73 2.2 N 24 30 13 16 1008.4 1008.6 0.0
29/07:00pm 10.9 5.5 6.3 73 2.2 N 24 33 13 18 1008.2 1008.4 0.0
29/06:30pm 10.7 4.9 6.1 73 2.2 N 26 33 14 18 1007.8 1008.0 0.0
29/06:00pm 11.9 5.2 5.8 66 2.9 N 30 43 16 23 1007.4 1007.6 0.0
29/05:30pm 12.4 4.3 5.3 62 3.3 N 37 48 20 26 1007.0 1007.2 0.0
29/05:00pm 13.3 5.3 5.9 61 3.5 N 37 48 20 26 1006.7 1006.9 0.0
29/04:30pm 14.0 6.1 6.1 59 3.8 N 37 48 20 26 1006.7 1006.9 0.0
29/04:00pm 14.3 6.3 5.7 56 4.1 N 37 48 20 26 1006.8 1007.0 0.0
29/03:30pm 14.6 5.6 6.4 58 4.0 NNW 43 56 23 30 1006.7 1006.9 0.0
29/03:00pm 15.8 8.5 7.3 57 4.3 NNW 35 56 19 30 1006.9 1007.1 0.0
29/02:34pm 15.3 7.2 6.8 57 4.2 NNW 39 57 21 31 1006.8 1007.0 0.0
29/02:30pm 15.1 7.0 7.2 59 3.9 NNW 39 52 21 28 1006.9 1007.1 0.0
29/02:00pm 15.6 7.3 6.1 53 4.6 NNW 39 52 21 28 1007.0 1007.2 0.0
29/01:30pm 15.4 7.4 5.9 53 4.6 NNW 37 46 20 25 1007.0 1007.2 0.0
29/01:11pm 16.2 7.9 6.1 51 4.9 NNW 39 57 21 31 1007.1 1007.3 0.0
29/01:00pm 15.7 6.8 5.3 50 5.0 NNW 41 54 22 29 1007.2 1007.4 0.0
29/12:30pm 16.6 9.1 6.4 51 5.0 NNW 35 46 19 25 1007.3 1007.5 0.0
29/12:00pm 15.0 7.7 5.5 53 4.6 NNW 33 43 18 23 1007.3 1007.5 0.0
29/11:30am 14.1 7.2 4.4 52 4.5 NNW 30 46 16 25 1007.4 1007.6 0.0
29/11:28am 15.5 9.0 4.8 49 5.1 NNW 28 46 15 25 1007.4 1007.6 0.0
29/11:00am 15.5 8.9 6.0 53 4.6 NNW 30 39 16 21 1007.5 1007.7 0.0
29/10:30am 13.7 6.9 3.2 49 4.7 WNW 28 41 15 22 1007.6 1007.8 0.0
29/10:00am 14.5 8.0 6.3 58 4.0 NW 30 44 16 24 1007.4 1007.6 0.0
29/09:30am 13.7 7.7 5.3 57 4.0 NNW 26 33 14 18 1007.2 1007.4 0.0
29/09:00am 12.1 6.1 5.3 63 3.2 NNW 26 33 14 18 1007.0 1007.2 9.8
29/08:30am 12.4 6.2 6.2 66 3.0 NNW 28 37 15 20 1007.0 1007.2 9.8
29/08:00am 11.6 5.3 5.9 68 2.7 NNW 28 35 15 19 1006.3 1006.4 9.8
29/07:30am 11.0 4.9 6.6 74 2.1 NNW 28 33 15 18 1005.8 1005.9 9.8
29/07:00am 9.9 4.1 6.4 79 1.7 NNW 26 39 14 21 1004.9 1005.1 9.8
29/06:30am 9.1 4.3 5.8 80 1.5 NNW 20 32 11 17 1004.7 1004.9 9.8
29/06:00am 8.3 3.2 4.3 76 1.8 NW 20 26 11 14 1004.1 1004.3 9.8
29/05:30am 9.2 3.3 5.6 78 1.7 NW 26 35 14 19 1003.3 1003.5 9.8
29/05:00am 10.8 5.8 8.0 83 1.4 NW 24 35 13 19 1002.7 1002.9 9.8
29/04:37am 10.9 5.8 9.2 89 0.9 NW 26 35 14 19 1002.1 1002.3 9.8
29/04:36am 11.1 5.7 9.4 89 0.9 NW 28 35 15 19 1002.1 1002.3 9.8
29/04:30am 11.0 6.0 9.6 91 0.7 NW 26 35 14 19 1002.1 1002.3 9.8
29/04:25am 10.9 5.9 9.7 92 0.6 NW 26 35 14 19 1001.8 1002.0 9.8
29/04:18am 10.5 5.8 9.1 91 0.7 W 24 30 13 16 1001.7 1001.9 9.6
29/04:16am 10.5 5.8 9.1 91 0.7 WNW 24 32 13 17 1001.8 1002.0 8.8
29/04:13am 10.5 5.3 8.9 90 0.8 WNW 26 35 14 19 1001.6 1001.7 7.8
29/04:00am 10.7 4.2 8.8 88 1.0 NW 33 48 18 26 1001.0 1001.1 7.6
29/03:57am 10.9 5.4 9.2 89 0.9 NW 28 46 15 25 1000.8 1000.9 7.6
29/03:38am 10.9 7.2 10.0 94 0.5 WNW 20 28 11 15 1000.9 1001.0 2.2
29/03:30am 10.8 5.1 9.7 93 0.6 NNW 30 37 16 20 1000.7 1000.8 1.4
29/03:20am 10.9 4.8 9.7 92 0.6 NNW 32 44 17 24 1000.4 1000.5 1.0
29/03:00am 11.0 4.8 7.9 81 1.5 NNW 30 43 16 23 1000.5 1000.6 1.0
29/02:30am 11.2 5.4 7.9 80 1.6 N 28 37 15 20 1001.0 1001.1 1.0
29/02:00am 10.8 4.5 7.5 80 1.6 NNW 30 37 16 20 1001.4 1001.5 1.0
29/01:30am 11.5 4.4 8.0 79 1.7 NNW 35 46 19 25 1001.5 1001.6 1.0
29/01:00am 11.7 4.8 8.9 83 1.4 NW 35 44 19 24 1001.3 1001.4 1.0
29/12:45am 11.8 5.6 9.4 85 1.2 NNW 32 39 17 21 1000.9 1001.0 1.0
29/12:30am 12.3 5.9 10.7 90 0.8 NNW 35 44 19 24 1001.2 1001.3 1.0
29/12:27am 12.4 6.0 10.8 90 0.8 NNW 35 46 19 25 1001.0 1001.1 1.0
29/12:25am 12.4 6.0 10.8 90 0.8 NNW 35 46 19 25 1001.1 1001.2 1.0
29/12:00am 12.9 6.6 11.0 88 1.0 NNW 35 46 19 25 1000.8 1000.9 1.0
 
Date/Time
EST
Temp
°C
App
Temp
°C
Dew
Point
Rel
Hum
%
Delta-T
°C
Wind Press
QNH
hPa
Press
MSL
hPa
Rain
since 9 am
mm
Dir
 
Spd
km/h
Gust
km/h
Spd
kts
Gust
kts
28/11:49pm 13.2 7.5 11.1 87 1.1 NNW 32 44 17 24 1000.6 1000.7 1.0
28/11:30pm 13.3 7.9 11.0 86 1.2 NNW 30 39 16 21 1000.7 1000.8 1.0
28/11:00pm 13.5 7.8 11.0 85 1.3 NNW 32 43 17 23 1000.9 1001.0 1.0
28/10:30pm 13.8 8.8 10.8 82 1.6 NNW 28 33 15 18 1000.9 1001.0 0.8
28/10:00pm 14.0 9.0 11.0 82 1.6 NNW 28 35 15 19 1001.0 1001.1 0.6
28/09:30pm 14.0 10.0 10.4 79 1.9 NNW 22 30 12 16 1000.9 1001.0 0.4
28/09:00pm 14.4 10.7 10.2 76 2.2 NNW 20 26 11 14 1001.2 1001.3 0.2
28/08:30pm 15.2 11.1 10.0 71 2.7 NNW 22 30 12 16 1001.6 1001.7 0.2
28/08:00pm 16.0 10.4 10.3 69 3.0 N 30 37 16 20 1001.6 1001.7 0.2
28/07:30pm 16.2 10.3 10.3 68 3.1 N 32 41 17 22 1001.6 1001.7 0.2
28/07:00pm 16.5 10.5 10.1 66 3.4 N 32 43 17 23 1001.8 1002.0 0.2
28/06:30pm 17.0 10.8 9.9 63 3.8 NW 33 43 18 23 1001.5 1001.6 0.2
28/06:00pm 16.3 12.6 10.2 67 3.3 NW 20 26 11 14 1001.2 1001.3 0.2
28/05:30pm 15.9 11.9 10.4 70 2.9 NNW 22 28 12 15 1001.1 1001.2 0.2
28/05:00pm 15.7 11.8 10.9 73 2.6 NW 22 32 12 17 1001.4 1001.5 0.2
28/04:30pm 15.9 11.3 10.9 72 2.7 N 26 37 14 20 1001.3 1001.4 0.2
28/04:00pm 15.6 11.3 10.8 73 2.6 N 24 35 13 19 1002.7 1002.9 0.2
28/03:30pm 16.9 12.9 10.3 65 3.5 NW 22 28 12 15 1003.5 1003.7 0.0
28/03:00pm 17.6 13.1 10.0 61 4.1 NW 24 33 13 18 1004.1 1004.3 0.0
28/02:30pm 18.3 13.5 10.4 60 4.3 N 26 37 14 20 1003.8 1004.0 0.0
28/02:00pm 18.0 12.8 10.1 60 4.2 N 28 37 15 20 1004.8 1005.0 0.0

Other Formats:

Comma delimited format used in spreadsheet applications
http://www.bom.gov.au/fwo/IDT60801/IDT60801.95966.axf

JavaScript Object Notation format (JSON) in row-major order
http://www.bom.gov.au/fwo/IDT60801/IDT60801.95966.json